This is the latest recevied weather packets stored in our database for station/object URMN. If no packets are shown the sender has not sent any weather packets the latest 10 day(s).
| Time | Temp. | Humidity | Pressure | Rain* | Wind** | Luminosity | Snow |
|---|---|---|---|---|---|---|---|
| 1777545055 | 16.67° C | 48% | 1016 hPa | - | - | - | - |
| 1777543254 | 16.67° C | 48% | 1016 hPa | - | - | - | - |
| 1777541455 | 15.56° C | 51% | 1016 hPa | - | - | - | - |
| 1777539654 | 15.56° C | 55% | 1017 hPa | - | - | - | - |
| 1777536058 | 15° C | 51% | 1017 hPa | - | - | - | - |
| 1777534254 | 13.89° C | 54% | 1017 hPa | - | - | - | - |
| 1777532455 | 12.78° C | 62% | 1017 hPa | - | - | - | - |
| 1777530655 | 12.78° C | 62% | 1017 hPa | - | - | - | - |
| 1777528854 | 11.67° C | 66% | 1017 hPa | - | - | - | - |
| 1777525255 | 10° C | 81% | 1017 hPa | - | - | - | - |
| 1777523454 | 10° C | 81% | 1017 hPa | - | - | - | - |
| 1777521655 | 6.67° C | 87% | 1017 hPa | - | - | - | - |
| 1777519855 | 6.67° C | 87% | 1017 hPa | - | - | - | - |
| 1777518057 | 7.78° C | 81% | 1017 hPa | - | - | - | - |
| 1777516255 | 7.78° C | 81% | 1017 hPa | - | - | - | - |
| 1777514455 | 5.56° C | 86% | 1017 hPa | - | - | - | - |
| 1777512656 | 5.56° C | 86% | 1017 hPa | - | - | - | - |
| 1777509055 | 6.67° C | 87% | 1017 hPa | - | - | - | - |
| 1777507254 | 6.67° C | 87% | 1017 hPa | - | - | - | - |
| 1777505455 | 6.67° C | 87% | 1017 hPa | - | - | - | - |
| 1777503656 | 7.78° C | 81% | 1017 hPa | - | - | - | - |
| 1777501856 | 7.78° C | 81% | 1017 hPa | - | - | - | - |
| 1777500055 | 10° C | 71% | 1017 hPa | - | - | - | - |
| 1777498255 | 10° C | 71% | 1017 hPa | - | - | - | - |
| 1777496457 | 10.56° C | 61% | 1017 hPa | - | - | - | - |
* Rain since midnight (hover to see other rain measurements)
** Current wind speed in m/s (hover to see current wind gust speed)